createdAt,value
2018-11-04T00:00:30.505Z,21.90
2018-11-04T00:02:59.064Z,25.13
2018-11-04T00:05:27.688Z,25.77
2018-11-04T00:07:56.358Z,25.83
2018-11-04T00:10:24.884Z,20.47
2018-11-04T00:12:53.477Z,23.33
2018-11-04T00:15:22.007Z,22.13
2018-11-04T00:17:51.464Z,28.03
2018-11-04T00:20:20.095Z,23.83
2018-11-04T00:22:48.753Z,23.17
2018-11-04T00:25:17.293Z,22.30
2018-11-04T00:27:46.768Z,22.70
2018-11-04T00:30:16.560Z,25.67
2018-11-04T00:32:45.862Z,28.20
2018-11-04T00:35:15.240Z,24.80
2018-11-04T00:37:45.681Z,27.80
2018-11-04T00:40:14.618Z,33.40
2018-11-04T00:42:43.518Z,24.03
2018-11-04T00:45:12.106Z,28.63
2018-11-04T00:47:40.995Z,27.13
2018-11-04T00:50:12.241Z,26.00
2018-11-04T00:52:40.955Z,20.20
2018-11-04T00:55:10.563Z,28.27
2018-11-04T00:57:39.089Z,19.53
2018-11-04T01:00:15.003Z,26.60
2018-11-04T01:02:45.438Z,28.10
2018-11-04T01:05:16.228Z,28.70
2018-11-04T01:07:46.820Z,24.93
2018-11-04T01:10:17.373Z,27.03
2018-11-04T01:12:46.670Z,25.40
2018-11-04T01:15:16.780Z,25.17
2018-11-04T01:17:47.508Z,25.63
2018-11-04T01:20:17.728Z,22.93
2018-11-04T01:22:49.691Z,24.70
2018-11-04T01:25:18.315Z,29.60
2018-11-04T01:27:48.064Z,26.90
2018-11-04T01:30:17.913Z,24.07
2018-11-04T01:32:47.475Z,26.70
2018-11-04T01:35:16.340Z,27.50
2018-11-04T01:37:46.803Z,32.17
2018-11-04T01:40:16.167Z,24.87
2018-11-04T01:42:46.353Z,25.03
2018-11-04T01:45:15.580Z,22.93
2018-11-04T01:47:45.646Z,27.10
2018-11-04T01:50:15.651Z,29.27
2018-11-04T01:52:45.995Z,32.33
2018-11-04T01:55:15.234Z,25.80
2018-11-04T01:57:44.594Z,22.00
2018-11-04T02:00:17.622Z,25.27
2018-11-04T02:02:46.993Z,26.13
2018-11-04T02:05:17.965Z,33.53
2018-11-04T02:07:46.497Z,28.53
2018-11-04T02:10:15.956Z,21.70
2018-11-04T02:12:46.557Z,25.33
2018-11-04T02:15:16.699Z,26.63
2018-11-04T02:17:46.317Z,27.70
2018-11-04T02:20:15.666Z,30.10
2018-11-04T02:22:45.611Z,30.67
2018-11-04T02:25:15.243Z,30.70
2018-11-04T02:27:45.939Z,28.30
2018-11-04T02:30:17.285Z,34.27
2018-11-04T02:32:47.468Z,28.70
2018-11-04T02:35:17.181Z,33.63
2018-11-04T02:37:46.546Z,27.27
2018-11-04T02:40:16.976Z,29.13
2018-11-04T02:42:45.747Z,25.53
2018-11-04T02:45:16.319Z,30.00
2018-11-04T02:47:46.969Z,27.33
2018-11-04T02:50:17.617Z,34.33
2018-11-04T02:52:46.353Z,32.57
2018-11-04T02:55:16.860Z,30.80
2018-11-04T02:57:46.261Z,37.40
2018-11-04T03:00:16.817Z,29.10
2018-11-04T03:02:46.183Z,28.87
2018-11-04T03:05:15.436Z,30.77
2018-11-04T03:07:44.494Z,31.07
2018-11-04T03:10:15.497Z,39.47
2018-11-04T03:12:45.393Z,43.93
2018-11-04T03:15:15.142Z,34.77
2018-11-04T03:17:44.960Z,37.30
2018-11-04T03:20:14.316Z,40.13
2018-11-04T03:22:45.040Z,42.20
2018-11-04T03:25:14.608Z,39.30
2018-11-04T03:27:44.687Z,39.90
2018-11-04T03:30:14.816Z,40.33
2018-11-04T03:32:44.383Z,42.70
2018-11-04T03:35:14.524Z,45.67
2018-11-04T03:37:44.818Z,50.20
2018-11-04T03:40:14.366Z,49.80
2018-11-04T03:42:44.936Z,53.60
2018-11-04T03:45:14.564Z,48.07
2018-11-04T03:47:44.677Z,58.50
2018-11-04T03:50:14.790Z,47.33
2018-11-04T03:52:45.551Z,50.63
2018-11-04T03:55:14.421Z,45.30
2018-11-04T03:57:44.907Z,47.87
2018-11-04T04:00:13.956Z,50.43
2018-11-04T04:02:44.333Z,43.07
2018-11-04T04:05:14.283Z,43.03
2018-11-04T04:07:44.563Z,41.67
2018-11-04T04:10:14.607Z,47.07
2018-11-04T04:12:43.208Z,46.87
2018-11-04T04:15:12.829Z,38.07
2018-11-04T04:17:42.530Z,45.90
2018-11-04T04:20:11.973Z,52.47
2018-11-04T04:22:41.614Z,45.87
2018-11-04T04:25:11.169Z,52.60
2018-11-04T04:27:40.649Z,46.90
2018-11-04T04:30:10.563Z,46.03
2018-11-04T04:32:40.043Z,52.10
2018-11-04T04:35:10.455Z,50.87
2018-11-04T04:37:40.294Z,47.90
2018-11-04T04:40:10.097Z,47.13
2018-11-04T04:42:38.807Z,51.73
2018-11-04T04:45:08.444Z,51.60
2018-11-04T04:47:36.988Z,62.43
2018-11-04T04:50:05.848Z,55.17
2018-11-04T04:52:34.415Z,49.90
2018-11-04T04:55:03.099Z,61.83
2018-11-04T04:57:31.698Z,52.37
2018-11-04T05:00:00.211Z,64.10
2018-11-04T05:02:28.737Z,54.53
2018-11-04T05:04:57.286Z,64.70
2018-11-04T05:07:25.900Z,67.50
2018-11-04T05:09:54.416Z,59.80
2018-11-04T05:12:22.939Z,60.00
2018-11-04T05:14:51.480Z,55.43
2018-11-04T05:17:20.026Z,66.50
2018-11-04T05:19:48.617Z,70.73
2018-11-04T05:22:17.369Z,59.80
2018-11-04T05:24:46.657Z,57.20
2018-11-04T05:27:16.495Z,65.43
2018-11-04T05:29:45.642Z,59.47
2018-11-04T05:32:14.815Z,61.37
2018-11-04T05:34:43.391Z,68.13
2018-11-04T05:37:11.951Z,64.90
2018-11-04T05:39:40.480Z,58.73
2018-11-04T05:42:09.024Z,56.33
2018-11-04T05:44:37.827Z,63.87
2018-11-04T05:47:07.153Z,54.07
2018-11-04T05:49:35.751Z,53.10
2018-11-04T05:52:04.798Z,59.30
2018-11-04T05:54:33.438Z,59.97
2018-11-04T05:57:01.957Z,62.17
2018-11-04T05:59:30.493Z,62.10
2018-11-04T06:01:59.062Z,60.60
2018-11-04T06:04:27.892Z,68.17
2018-11-04T06:06:56.455Z,59.10
2018-11-04T06:09:25.036Z,57.60
2018-11-04T06:11:53.545Z,59.93
2018-11-04T06:14:22.076Z,60.00
2018-11-04T06:16:50.634Z,64.07
2018-11-04T06:19:19.198Z,69.20
2018-11-04T06:21:47.758Z,64.17
2018-11-04T06:24:17.688Z,72.23
2018-11-04T06:26:47.290Z,66.63
2018-11-04T06:29:16.092Z,68.77
2018-11-04T06:31:45.706Z,58.97
2018-11-04T06:34:14.664Z,58.93
2018-11-04T06:36:43.438Z,61.50
2018-11-04T06:39:12.038Z,67.13
2018-11-04T06:41:40.618Z,66.57
2018-11-04T06:44:09.193Z,60.67
2018-11-04T06:46:37.772Z,80.33
2018-11-04T06:49:06.325Z,65.90
2018-11-04T06:51:34.915Z,71.40
2018-11-04T06:54:03.821Z,66.50
2018-11-04T06:56:32.402Z,70.07
2018-11-04T06:59:01.056Z,71.83
2018-11-04T07:01:29.585Z,82.50
2018-11-04T07:04:09.629Z,84.77
2018-11-04T07:06:39.089Z,83.50
2018-11-04T07:09:09.281Z,69.10
2018-11-04T07:11:38.730Z,77.60
2018-11-04T07:14:07.358Z,78.63
2018-11-04T07:16:35.904Z,81.13
2018-11-04T07:19:04.709Z,83.13
2018-11-04T07:21:33.738Z,70.80
2018-11-04T07:24:02.660Z,71.33
2018-11-04T07:26:31.226Z,74.10
2018-11-04T07:28:59.783Z,77.10
2018-11-04T07:31:29.352Z,95.60
2018-11-04T07:33:58.710Z,92.93
2018-11-04T07:36:27.260Z,80.97
2018-11-04T07:38:55.814Z,96.87
2018-11-04T07:41:24.369Z,79.30
2018-11-04T07:43:52.921Z,83.93
2018-11-04T07:46:22.479Z,78.50
2018-11-04T07:48:51.924Z,79.53
2018-11-04T07:51:21.372Z,90.47
2018-11-04T07:53:50.794Z,81.13
2018-11-04T07:56:20.258Z,79.00
2018-11-04T07:58:49.693Z,85.20
2018-11-04T08:01:18.266Z,77.03
2018-11-04T08:03:47.718Z,94.70
2018-11-04T08:06:16.535Z,78.53
2018-11-04T08:08:45.670Z,85.47
2018-11-04T08:11:15.651Z,85.43
2018-11-04T08:13:45.576Z,88.77
2018-11-04T08:16:15.854Z,79.27
2018-11-04T08:18:46.405Z,84.73
2018-11-04T08:21:16.994Z,77.40
2018-11-04T08:23:46.435Z,81.33
2018-11-04T08:26:15.712Z,69.37
2018-11-04T08:28:45.838Z,64.40
2018-11-04T08:31:16.141Z,70.97
2018-11-04T08:33:46.139Z,76.77
2018-11-04T08:36:15.516Z,82.57
2018-11-04T08:38:45.970Z,74.60
2018-11-04T08:41:16.238Z,85.47
2018-11-04T08:43:46.029Z,78.07
2018-11-04T08:46:15.419Z,83.73
2018-11-04T08:48:44.394Z,69.00
2018-11-04T08:51:15.229Z,75.30
2018-11-04T08:53:44.156Z,78.27
2018-11-04T08:56:13.201Z,75.90
2018-11-04T08:58:42.578Z,73.97
2018-11-04T09:01:12.080Z,77.57
2018-11-04T09:03:41.764Z,85.63
2018-11-04T09:06:11.371Z,80.70
2018-11-04T09:08:40.809Z,78.13
2018-11-04T09:11:10.252Z,86.77
2018-11-04T09:13:39.880Z,79.17
2018-11-04T09:16:08.454Z,68.73
2018-11-04T09:18:55.359Z,81.27
2018-11-04T09:21:24.913Z,78.93
2018-11-04T09:26:56.276Z,83.93
2018-11-04T09:29:25.714Z,80.57
2018-11-04T09:32:29.983Z,76.17
2018-11-04T09:34:59.123Z,88.67
2018-11-04T09:37:28.992Z,90.20
2018-11-04T09:39:57.541Z,77.73
2018-11-04T09:42:26.150Z,91.80
2018-11-04T09:44:54.851Z,81.47
2018-11-04T09:47:23.414Z,94.63
2018-11-04T09:49:52.192Z,90.73
2018-11-04T09:52:21.728Z,86.93
2018-11-04T09:54:51.253Z,87.10
2018-11-04T09:57:19.808Z,82.20
2018-11-04T09:59:49.391Z,88.80
2018-11-04T10:02:17.984Z,82.53
2018-11-04T10:04:46.696Z,83.87
2018-11-04T10:07:17.386Z,87.90
2018-11-04T10:09:46.853Z,78.27
2018-11-04T10:12:16.194Z,84.73
2018-11-04T10:14:46.833Z,83.67
2018-11-04T10:17:17.668Z,88.47
2018-11-04T10:19:47.453Z,90.50
2018-11-04T10:22:17.268Z,88.73
2018-11-04T10:24:46.388Z,95.37
2018-11-04T10:27:16.016Z,97.00
2018-11-04T10:29:45.568Z,97.87
2018-11-04T10:32:14.679Z,80.60
2018-11-04T10:34:44.729Z,86.90
2018-11-04T10:37:13.526Z,99.07
2018-11-04T10:39:42.069Z,99.73
2018-11-04T10:42:11.724Z,90.57
2018-11-04T10:44:40.516Z,97.00
2018-11-04T10:47:10.815Z,84.67
2018-11-04T10:49:40.195Z,92.67
2018-11-04T10:52:09.871Z,98.47
2018-11-04T10:54:39.140Z,88.50
2018-11-04T10:57:09.082Z,94.40
2018-11-04T10:59:37.896Z,74.43
2018-11-04T11:02:06.503Z,86.20
2018-11-04T11:04:36.371Z,86.77
2018-11-04T11:07:07.542Z,96.10
2018-11-04T11:09:39.567Z,95.63
2018-11-04T11:12:08.328Z,78.10
2018-11-04T11:14:37.114Z,93.63
2018-11-04T11:17:06.713Z,94.40
2018-11-04T11:19:35.416Z,92.00
2018-11-04T11:22:04.009Z,93.70
2018-11-04T11:24:33.322Z,99.57
2018-11-04T11:27:01.999Z,88.97
2018-11-04T11:29:30.657Z,168.53
2018-11-04T11:31:59.475Z,152.93
2018-11-04T11:34:28.038Z,86.07
2018-11-04T11:36:56.836Z,87.63
2018-11-04T11:39:26.304Z,83.03
2018-11-04T11:41:55.065Z,96.50
2018-11-04T11:44:23.938Z,96.27
2018-11-04T11:46:52.726Z,82.50
2018-11-04T11:49:21.667Z,90.60
2018-11-04T11:51:50.266Z,98.37
2018-11-04T11:54:19.081Z,99.90
2018-11-04T11:56:47.801Z,107.10
2018-11-04T11:59:16.535Z,82.93
2018-11-04T12:01:46.281Z,98.40
2018-11-04T12:04:16.054Z,95.03
2018-11-04T12:06:45.546Z,100.77
2018-11-04T12:09:15.887Z,99.33
2018-11-04T12:11:45.277Z,93.10
2018-11-04T12:14:15.128Z,98.87
2018-11-04T12:16:45.086Z,89.50
2018-11-04T12:19:15.277Z,83.30
2018-11-04T12:21:44.697Z,91.60
2018-11-04T12:24:14.546Z,92.83
2018-11-04T12:26:45.201Z,94.63
2018-11-04T12:29:15.055Z,98.43
2018-11-04T12:31:44.545Z,99.93
2018-11-04T12:34:13.287Z,90.87
2018-11-04T12:36:42.031Z,114.40
2018-11-04T12:39:11.957Z,98.80
2018-11-04T12:41:40.640Z,104.23
2018-11-04T12:44:10.256Z,91.53
2018-11-04T12:46:39.878Z,106.53
2018-11-04T12:49:08.594Z,106.53
2018-11-04T12:51:37.322Z,107.90
2018-11-04T12:54:06.123Z,111.23
2018-11-04T12:56:34.800Z,96.67
2018-11-04T12:59:04.373Z,104.23
2018-11-04T13:01:33.098Z,88.33
2018-11-04T13:04:01.821Z,93.87
2018-11-04T13:06:30.455Z,98.93
2018-11-04T13:08:59.283Z,96.23
2018-11-04T13:11:28.914Z,87.17
2018-11-04T13:13:57.615Z,103.87
2018-11-04T13:16:27.277Z,97.60
2018-11-04T13:18:56.894Z,105.87
2018-11-04T13:21:26.721Z,107.83
2018-11-04T13:23:55.568Z,95.13
2018-11-04T13:26:25.120Z,94.17
2018-11-04T13:28:53.974Z,102.97
2018-11-04T13:31:22.532Z,86.47
2018-11-04T13:33:52.132Z,106.97
2018-11-04T13:36:20.701Z,97.47
2018-11-04T13:38:49.464Z,105.23
2018-11-04T13:41:18.136Z,106.90
2018-11-04T13:43:46.836Z,106.67
2018-11-04T13:46:17.445Z,100.30
2018-11-04T13:48:46.922Z,102.80
2018-11-04T13:51:16.101Z,111.20
2018-11-04T13:53:45.522Z,116.70
2018-11-04T13:56:15.799Z,106.13
2018-11-04T13:58:45.360Z,109.10
2018-11-04T14:01:15.031Z,116.23
2018-11-04T14:03:44.624Z,98.07
2018-11-04T14:06:13.463Z,117.80
2018-11-04T14:08:43.696Z,114.50
2018-11-04T14:11:12.653Z,120.70
2018-11-04T14:13:42.389Z,115.17
2018-11-04T14:16:11.326Z,111.13
2018-11-04T14:18:41.163Z,117.63
2018-11-04T14:21:10.420Z,112.60
2018-11-04T14:23:39.030Z,109.10
2018-11-04T14:26:08.124Z,89.50
2018-11-04T14:28:38.064Z,113.17
2018-11-04T14:31:08.040Z,108.60
2018-11-04T14:33:37.745Z,113.60
2018-11-04T14:36:07.611Z,105.30
2018-11-04T14:38:36.335Z,110.10
2018-11-04T14:41:05.489Z,102.87
2018-11-04T14:43:34.152Z,103.97
2018-11-04T14:46:02.717Z,108.50
2018-11-04T14:48:31.419Z,113.60
2018-11-04T14:51:00.122Z,111.70
2018-11-04T14:53:28.735Z,115.47
2018-11-04T14:55:58.322Z,103.90
2018-11-04T14:58:27.008Z,122.50
2018-11-04T15:00:56.591Z,113.80
2018-11-04T15:03:26.176Z,106.80
2018-11-04T15:05:54.913Z,127.07
2018-11-04T15:08:23.841Z,110.50
2018-11-04T15:10:52.466Z,102.03
2018-11-04T15:13:21.006Z,100.43
2018-11-04T15:15:49.607Z,120.90
2018-11-04T15:18:18.233Z,130.73
2018-11-04T15:20:47.098Z,102.40
2018-11-04T15:23:16.649Z,110.50
2018-11-04T15:25:46.214Z,105.67
2018-11-04T15:28:15.963Z,99.93
2018-11-04T15:30:46.058Z,108.23
2018-11-04T15:33:15.557Z,117.30
2018-11-04T15:35:44.794Z,120.57
2018-11-04T15:38:14.641Z,102.67
2018-11-04T15:40:43.321Z,110.97
2018-11-04T15:43:11.975Z,94.57
2018-11-04T15:45:40.700Z,115.13
2018-11-04T15:48:09.512Z,96.87
2018-11-04T15:50:38.251Z,110.33
2018-11-04T15:53:07.080Z,103.37
2018-11-04T15:55:35.777Z,110.30
2018-11-04T15:58:04.612Z,97.00
2018-11-04T16:00:33.238Z,101.23
2018-11-04T16:03:01.784Z,95.70
2018-11-04T16:05:31.244Z,98.37
2018-11-04T16:07:59.995Z,97.43
2018-11-04T16:10:29.637Z,93.93
2018-11-04T16:12:59.482Z,87.13
2018-11-04T16:15:28.152Z,83.73
2018-11-04T16:17:57.862Z,97.43
2018-11-04T16:20:26.574Z,99.00
2018-11-04T16:22:56.133Z,90.03
2018-11-04T16:25:24.865Z,83.77
2018-11-04T16:27:53.576Z,85.30
2018-11-04T16:30:22.332Z,84.87
2018-11-04T16:32:51.761Z,95.13
2018-11-04T16:35:21.368Z,85.90
2018-11-04T16:37:50.069Z,92.83
2018-11-04T16:40:19.734Z,83.90
2018-11-04T16:42:48.294Z,78.17
2018-11-04T16:45:17.014Z,90.40
2018-11-04T16:47:46.899Z,89.83
2018-11-04T16:50:17.633Z,74.70
2018-11-04T16:52:46.912Z,72.23
2018-11-04T16:55:15.638Z,74.87
2018-11-04T16:57:45.103Z,83.67
2018-11-04T17:00:14.166Z,77.10
2018-11-04T17:02:42.765Z,71.57
2018-11-04T17:05:13.545Z,82.53
2018-11-04T17:07:44.542Z,74.80
2018-11-04T17:10:14.675Z,81.70
2018-11-04T17:12:43.353Z,77.23
2018-11-04T17:15:14.602Z,77.90
2018-11-04T17:17:44.533Z,71.23
2018-11-04T17:20:15.075Z,67.63
2018-11-04T17:22:45.814Z,67.90
2018-11-04T17:25:15.169Z,66.27
2018-11-04T17:27:45.045Z,66.50
2018-11-04T17:30:18.095Z,84.20
2018-11-04T17:32:48.037Z,75.70
2018-11-04T17:35:18.394Z,66.37
2018-11-04T17:37:47.516Z,71.77
2018-11-04T17:40:17.163Z,71.93
2018-11-04T17:42:46.494Z,74.03
2018-11-04T17:45:17.188Z,75.63
2018-11-04T17:47:47.221Z,74.33
2018-11-04T17:50:20.340Z,72.13
2018-11-04T17:52:48.879Z,69.47
2018-11-04T17:55:17.494Z,76.67
2018-11-04T17:57:46.711Z,77.47
2018-11-04T18:00:16.885Z,75.70
2018-11-04T18:02:46.374Z,69.27
2018-11-04T18:05:16.373Z,80.27
2018-11-04T18:07:45.772Z,76.97
2018-11-04T18:10:16.075Z,74.00
2018-11-04T18:12:45.595Z,70.60
2018-11-04T18:15:15.302Z,72.77
2018-11-04T18:17:44.987Z,68.13
2018-11-04T18:20:14.270Z,62.80
2018-11-04T18:22:42.853Z,76.17
2018-11-04T18:25:12.295Z,62.63
2018-11-04T18:27:40.837Z,80.37
2018-11-04T18:30:11.359Z,82.83
2018-11-04T18:32:40.066Z,66.90
2018-11-04T18:35:08.871Z,77.07
2018-11-04T18:37:37.726Z,81.00
2018-11-04T18:40:08.533Z,74.00
2018-11-04T18:42:38.023Z,67.53
2018-11-04T18:45:08.485Z,63.73
2018-11-04T18:47:58.892Z,68.33
2018-11-04T18:50:29.403Z,71.10
2018-11-04T18:52:58.277Z,73.67
2018-11-04T18:55:26.836Z,61.70
2018-11-04T18:57:55.553Z,65.30
2018-11-04T19:00:24.183Z,69.33
2018-11-04T19:02:52.930Z,70.63
2018-11-04T19:05:21.844Z,65.57
2018-11-04T19:07:51.570Z,77.70
2018-11-04T19:10:20.606Z,74.60
2018-11-04T19:12:49.190Z,64.90
2018-11-04T19:15:17.768Z,67.47
2018-11-04T19:17:47.505Z,66.13
2018-11-04T19:20:17.759Z,68.67
2018-11-04T19:22:47.668Z,63.23
2018-11-04T19:25:17.409Z,66.83
2018-11-04T19:27:47.095Z,63.27
2018-11-04T19:30:17.506Z,72.27
2018-11-04T19:32:47.308Z,67.07
2018-11-04T19:35:17.326Z,70.67
2018-11-04T19:37:46.918Z,66.40
2018-11-04T19:40:16.748Z,60.90
2018-11-04T19:42:46.381Z,62.00
2018-11-04T19:45:15.642Z,61.07
2018-11-04T19:47:44.791Z,64.83
2018-11-04T19:50:15.559Z,62.03
2018-11-04T19:52:44.342Z,65.37
2018-11-04T19:55:13.397Z,57.63
2018-11-04T19:57:43.581Z,50.00
2018-11-04T20:00:13.202Z,60.13
2018-11-04T20:02:42.067Z,48.13
2018-11-04T20:05:11.738Z,53.20
2018-11-04T20:07:40.494Z,50.53
2018-11-04T20:10:15.241Z,63.30
2018-11-04T20:12:49.470Z,53.87
2018-11-04T20:15:18.095Z,61.80
2018-11-04T20:17:47.751Z,53.10
2018-11-04T20:20:19.635Z,57.33
2018-11-04T20:22:49.385Z,56.00
2018-11-04T20:25:23.315Z,56.63
2018-11-04T20:27:51.908Z,56.70
2018-11-04T20:30:20.501Z,49.13
2018-11-04T20:32:54.384Z,58.77
2018-11-04T20:35:22.971Z,56.87
2018-11-04T20:37:51.658Z,57.27
2018-11-04T20:40:26.311Z,56.17
2018-11-04T20:42:55.794Z,59.70
2018-11-04T20:45:24.386Z,59.27
2018-11-04T20:47:58.261Z,50.00
2018-11-04T20:50:32.238Z,73.87
2018-11-04T20:53:01.056Z,65.60
2018-11-04T20:55:35.071Z,64.30
2018-11-04T20:58:03.681Z,63.23
2018-11-04T21:00:32.299Z,62.00
2018-11-04T21:03:00.934Z,65.13
2018-11-04T21:05:29.496Z,55.17
2018-11-04T21:07:58.977Z,60.03
2018-11-04T21:10:28.779Z,63.80
2018-11-04T21:12:58.207Z,72.03
2018-11-04T21:15:26.762Z,61.73
2018-11-04T21:17:56.148Z,66.77
2018-11-04T21:20:24.690Z,68.30
2018-11-04T21:22:53.350Z,72.17
2018-11-04T21:25:23.391Z,59.70
2018-11-04T21:27:51.938Z,68.07
2018-11-04T21:30:21.687Z,67.73
2018-11-04T21:32:50.249Z,69.73
2018-11-04T21:35:18.796Z,62.10
2018-11-04T21:37:47.282Z,77.97
2018-11-04T21:40:16.713Z,67.03
2018-11-04T21:42:46.481Z,64.80
2018-11-04T21:45:15.662Z,70.30
2018-11-04T21:47:45.765Z,68.13
2018-11-04T21:50:14.542Z,68.70
2018-11-04T21:52:44.751Z,69.93
2018-11-04T21:55:14.521Z,84.50
2018-11-04T21:57:44.551Z,64.03
2018-11-04T22:00:15.449Z,68.60
2018-11-04T22:02:44.992Z,67.50
2018-11-04T22:05:14.409Z,80.70
2018-11-04T22:07:44.805Z,69.63
2018-11-04T22:10:15.790Z,72.60
2018-11-04T22:12:45.380Z,78.20
2018-11-04T22:15:14.675Z,79.83
2018-11-04T22:17:44.610Z,71.97
2018-11-04T22:20:14.937Z,79.47
2018-11-04T22:22:44.673Z,85.60
2018-11-04T22:25:13.284Z,90.20
2018-11-04T22:27:43.140Z,79.73
2018-11-04T22:30:12.646Z,80.07
2018-11-04T22:32:42.090Z,83.90
2018-11-04T22:35:12.332Z,84.33
2018-11-04T22:37:40.948Z,77.50
2018-11-04T22:40:11.898Z,99.63
2018-11-04T22:42:41.140Z,81.50
2018-11-04T22:45:11.400Z,98.80
2018-11-04T22:47:41.968Z,86.83
2018-11-04T22:50:13.331Z,85.43
2018-11-04T22:52:42.696Z,101.30
2018-11-04T22:55:11.965Z,83.17
2018-11-04T22:57:40.498Z,84.10
2018-11-04T23:00:15.927Z,102.97
2018-11-04T23:02:47.651Z,93.63
2018-11-04T23:05:21.777Z,88.50
2018-11-04T23:07:50.520Z,106.83
2018-11-04T23:10:19.114Z,102.00
2018-11-04T23:12:47.752Z,102.97
2018-11-04T23:15:16.915Z,96.73
2018-11-04T23:17:46.299Z,86.10
2018-11-04T23:20:15.166Z,99.47
2018-11-04T23:22:44.570Z,100.73
2018-11-04T23:25:14.489Z,101.70
2018-11-04T23:27:44.508Z,102.23
2018-11-04T23:30:16.591Z,103.60
2018-11-04T23:32:45.878Z,106.77
2018-11-04T23:35:14.546Z,103.23
2018-11-04T23:37:44.402Z,113.90
2018-11-04T23:40:13.294Z,137.67
2018-11-04T23:42:41.871Z,119.07
2018-11-04T23:45:12.769Z,113.83
2018-11-04T23:47:41.229Z,117.40
2018-11-04T23:50:13.451Z,131.33
2018-11-04T23:52:42.084Z,141.40
2018-11-04T23:55:11.454Z,131.00
2018-11-04T23:57:40.908Z,123.53
